sensor_id;sensor_type;location;lat;lon;timestamp;P1;durP1;ratioP1;P2;durP2;ratioP2
32292;SDS011;43233;48.608;8.838;2023-07-13T00:01:30;2.30;;;1.47;;
32292;SDS011;43233;48.608;8.838;2023-07-13T00:03:57;2.30;;;1.67;;
32292;SDS011;43233;48.608;8.838;2023-07-13T00:06:23;4.60;;;1.80;;
32292;SDS011;43233;48.608;8.838;2023-07-13T00:08:49;1.77;;;1.67;;
32292;SDS011;43233;48.608;8.838;2023-07-13T00:11:15;6.63;;;1.50;;
32292;SDS011;43233;48.608;8.838;2023-07-13T00:13:42;1.73;;;1.63;;
32292;SDS011;43233;48.608;8.838;2023-07-13T00:16:09;3.83;;;1.83;;
32292;SDS011;43233;48.608;8.838;2023-07-13T00:18:36;3.03;;;1.57;;
32292;SDS011;43233;48.608;8.838;2023-07-13T00:21:02;6.10;;;1.97;;
32292;SDS011;43233;48.608;8.838;2023-07-13T00:23:35;4.37;;;1.57;;
32292;SDS011;43233;48.608;8.838;2023-07-13T00:26:03;3.33;;;1.77;;
32292;SDS011;43233;48.608;8.838;2023-07-13T00:28:29;4.10;;;1.43;;
32292;SDS011;43233;48.608;8.838;2023-07-13T00:30:55;2.30;;;1.47;;
32292;SDS011;43233;48.608;8.838;2023-07-13T00:33:21;3.63;;;1.60;;
32292;SDS011;43233;48.608;8.838;2023-07-13T00:35:49;4.57;;;1.60;;
32292;SDS011;43233;48.608;8.838;2023-07-13T00:38:15;2.40;;;1.43;;
32292;SDS011;43233;48.608;8.838;2023-07-13T00:40:41;2.13;;;1.53;;
32292;SDS011;43233;48.608;8.838;2023-07-13T00:43:14;6.20;;;2.00;;
32292;SDS011;43233;48.608;8.838;2023-07-13T00:48:11;4.47;;;1.73;;
32292;SDS011;43233;48.608;8.838;2023-07-13T00:50:41;8.53;;;1.50;;
32292;SDS011;43233;48.608;8.838;2023-07-13T00:53:09;2.37;;;1.53;;
32292;SDS011;43233;48.608;8.838;2023-07-13T00:55:36;1.77;;;1.40;;
32292;SDS011;43233;48.608;8.838;2023-07-13T00:58:03;3.10;;;1.60;;
32292;SDS011;43233;48.608;8.838;2023-07-13T01:00:30;3.67;;;1.70;;
32292;SDS011;43233;48.608;8.838;2023-07-13T01:02:55;4.17;;;1.77;;
32292;SDS011;43233;48.608;8.838;2023-07-13T01:05:22;1.50;;;1.40;;
32292;SDS011;43233;48.608;8.838;2023-07-13T01:07:49;2.60;;;1.60;;
32292;SDS011;43233;48.608;8.838;2023-07-13T01:10:17;1.90;;;1.30;;
32292;SDS011;43233;48.608;8.838;2023-07-13T01:12:46;1.70;;;1.30;;
32292;SDS011;43233;48.608;8.838;2023-07-13T01:18:05;3.57;;;1.47;;
32292;SDS011;43233;48.608;8.838;2023-07-13T01:20:34;1.70;;;1.60;;
32292;SDS011;43233;48.608;8.838;2023-07-13T01:23:00;1.70;;;1.37;;
32292;SDS011;43233;48.608;8.838;2023-07-13T01:25:31;4.10;;;1.40;;
32292;SDS011;43233;48.608;8.838;2023-07-13T01:27:57;4.60;;;1.40;;
32292;SDS011;43233;48.608;8.838;2023-07-13T01:30:22;2.30;;;1.43;;
32292;SDS011;43233;48.608;8.838;2023-07-13T01:32:48;4.57;;;1.67;;
32292;SDS011;43233;48.608;8.838;2023-07-13T01:35:13;6.27;;;1.50;;
32292;SDS011;43233;48.608;8.838;2023-07-13T01:37:39;2.17;;;1.47;;
32292;SDS011;43233;48.608;8.838;2023-07-13T01:40:05;4.47;;;1.50;;
32292;SDS011;43233;48.608;8.838;2023-07-13T01:42:31;3.10;;;1.10;;
32292;SDS011;43233;48.608;8.838;2023-07-13T01:44:56;3.47;;;1.60;;
32292;SDS011;43233;48.608;8.838;2023-07-13T01:47:22;3.07;;;1.50;;
32292;SDS011;43233;48.608;8.838;2023-07-13T01:49:48;4.03;;;1.47;;
32292;SDS011;43233;48.608;8.838;2023-07-13T01:52:16;5.63;;;1.47;;
32292;SDS011;43233;48.608;8.838;2023-07-13T01:54:42;6.93;;;1.60;;
32292;SDS011;43233;48.608;8.838;2023-07-13T01:57:08;1.60;;;1.50;;
32292;SDS011;43233;48.608;8.838;2023-07-13T01:59:33;1.60;;;1.50;;
32292;SDS011;43233;48.608;8.838;2023-07-13T02:01:59;7.57;;;1.77;;
32292;SDS011;43233;48.608;8.838;2023-07-13T02:04:25;3.20;;;1.40;;
32292;SDS011;43233;48.608;8.838;2023-07-13T02:06:50;3.73;;;1.50;;
32292;SDS011;43233;48.608;8.838;2023-07-13T02:09:16;1.50;;;1.40;;
32292;SDS011;43233;48.608;8.838;2023-07-13T02:11:41;5.50;;;1.77;;
32292;SDS011;43233;48.608;8.838;2023-07-13T02:14:07;3.37;;;1.30;;
32292;SDS011;43233;48.608;8.838;2023-07-13T02:16:32;3.00;;;1.90;;
32292;SDS011;43233;48.608;8.838;2023-07-13T02:18:58;3.03;;;1.70;;
32292;SDS011;43233;48.608;8.838;2023-07-13T02:21:25;6.10;;;1.80;;
32292;SDS011;43233;48.608;8.838;2023-07-13T02:23:51;7.90;;;1.80;;
32292;SDS011;43233;48.608;8.838;2023-07-13T02:26:17;3.90;;;1.80;;
32292;SDS011;43233;48.608;8.838;2023-07-13T02:28:43;6.40;;;1.80;;
32292;SDS011;43233;48.608;8.838;2023-07-13T02:31:10;5.87;;;2.10;;
32292;SDS011;43233;48.608;8.838;2023-07-13T02:33:38;3.07;;;1.83;;
32292;SDS011;43233;48.608;8.838;2023-07-13T02:36:04;2.63;;;1.77;;
32292;SDS011;43233;48.608;8.838;2023-07-13T02:38:30;2.60;;;1.27;;
32292;SDS011;43233;48.608;8.838;2023-07-13T02:40:58;1.30;;;1.30;;
32292;SDS011;43233;48.608;8.838;2023-07-13T02:43:24;1.43;;;1.33;;
32292;SDS011;43233;48.608;8.838;2023-07-13T02:45:50;2.93;;;1.70;;
32292;SDS011;43233;48.608;8.838;2023-07-13T02:48:16;8.80;;;1.70;;
32292;SDS011;43233;48.608;8.838;2023-07-13T02:50:41;1.80;;;1.70;;
32292;SDS011;43233;48.608;8.838;2023-07-13T02:53:08;2.63;;;2.13;;
32292;SDS011;43233;48.608;8.838;2023-07-13T02:55:34;4.30;;;1.57;;
32292;SDS011;43233;48.608;8.838;2023-07-13T02:58:00;2.83;;;1.70;;
32292;SDS011;43233;48.608;8.838;2023-07-13T03:00:26;2.90;;;1.40;;
32292;SDS011;43233;48.608;8.838;2023-07-13T03:02:52;2.40;;;1.30;;
32292;SDS011;43233;48.608;8.838;2023-07-13T03:05:23;6.53;;;2.07;;
32292;SDS011;43233;48.608;8.838;2023-07-13T03:07:49;2.87;;;1.70;;
32292;SDS011;43233;48.608;8.838;2023-07-13T03:10:14;1.67;;;1.43;;
32292;SDS011;43233;48.608;8.838;2023-07-13T03:12:41;10.13;;;1.90;;
32292;SDS011;43233;48.608;8.838;2023-07-13T03:15:07;2.37;;;1.67;;
32292;SDS011;43233;48.608;8.838;2023-07-13T03:17:32;2.80;;;1.90;;
32292;SDS011;43233;48.608;8.838;2023-07-13T03:19:58;2.50;;;1.90;;
32292;SDS011;43233;48.608;8.838;2023-07-13T03:22:24;3.47;;;1.93;;
32292;SDS011;43233;48.608;8.838;2023-07-13T03:24:49;7.07;;;1.70;;
32292;SDS011;43233;48.608;8.838;2023-07-13T03:27:16;4.00;;;1.70;;
32292;SDS011;43233;48.608;8.838;2023-07-13T03:29:42;5.53;;;1.80;;
32292;SDS011;43233;48.608;8.838;2023-07-13T03:32:08;2.20;;;1.83;;
32292;SDS011;43233;48.608;8.838;2023-07-13T03:34:34;11.60;;;1.90;;
32292;SDS011;43233;48.608;8.838;2023-07-13T03:37:00;1.60;;;1.43;;
32292;SDS011;43233;48.608;8.838;2023-07-13T03:39:25;1.63;;;1.50;;
32292;SDS011;43233;48.608;8.838;2023-07-13T03:41:51;3.30;;;1.50;;
32292;SDS011;43233;48.608;8.838;2023-07-13T03:44:17;2.80;;;1.93;;
32292;SDS011;43233;48.608;8.838;2023-07-13T03:46:43;2.47;;;1.63;;
32292;SDS011;43233;48.608;8.838;2023-07-13T03:49:10;3.80;;;1.73;;
32292;SDS011;43233;48.608;8.838;2023-07-13T03:51:36;4.83;;;1.80;;
32292;SDS011;43233;48.608;8.838;2023-07-13T03:54:02;2.30;;;1.87;;
32292;SDS011;43233;48.608;8.838;2023-07-13T03:56:28;7.63;;;1.90;;
32292;SDS011;43233;48.608;8.838;2023-07-13T03:58:55;3.53;;;1.70;;
32292;SDS011;43233;48.608;8.838;2023-07-13T04:01:22;4.20;;;1.47;;
32292;SDS011;43233;48.608;8.838;2023-07-13T04:03:49;3.73;;;1.70;;
32292;SDS011;43233;48.608;8.838;2023-07-13T04:06:20;4.40;;;1.73;;
32292;SDS011;43233;48.608;8.838;2023-07-13T04:08:57;12.23;;;2.60;;
32292;SDS011;43233;48.608;8.838;2023-07-13T04:11:26;7.23;;;2.90;;
32292;SDS011;43233;48.608;8.838;2023-07-13T04:13:54;8.10;;;3.27;;
32292;SDS011;43233;48.608;8.838;2023-07-13T04:16:20;7.50;;;2.17;;
32292;SDS011;43233;48.608;8.838;2023-07-13T04:18:47;7.07;;;2.47;;
32292;SDS011;43233;48.608;8.838;2023-07-13T04:21:13;3.03;;;2.27;;
32292;SDS011;43233;48.608;8.838;2023-07-13T04:23:39;4.93;;;2.13;;
32292;SDS011;43233;48.608;8.838;2023-07-13T04:26:05;5.43;;;2.07;;
32292;SDS011;43233;48.608;8.838;2023-07-13T04:28:32;2.00;;;1.90;;
32292;SDS011;43233;48.608;8.838;2023-07-13T04:30:58;5.37;;;2.10;;
32292;SDS011;43233;48.608;8.838;2023-07-13T04:33:24;5.97;;;2.10;;
32292;SDS011;43233;48.608;8.838;2023-07-13T04:35:54;3.37;;;2.60;;
32292;SDS011;43233;48.608;8.838;2023-07-13T04:38:25;3.87;;;2.00;;
32292;SDS011;43233;48.608;8.838;2023-07-13T04:40:54;5.10;;;2.50;;
32292;SDS011;43233;48.608;8.838;2023-07-13T04:43:21;6.10;;;2.63;;
32292;SDS011;43233;48.608;8.838;2023-07-13T04:45:47;7.70;;;3.07;;
32292;SDS011;43233;48.608;8.838;2023-07-13T04:48:12;3.17;;;2.73;;
32292;SDS011;43233;48.608;8.838;2023-07-13T04:50:38;5.10;;;2.67;;
32292;SDS011;43233;48.608;8.838;2023-07-13T04:53:04;2.33;;;2.13;;
32292;SDS011;43233;48.608;8.838;2023-07-13T04:55:30;3.90;;;1.90;;
32292;SDS011;43233;48.608;8.838;2023-07-13T04:57:56;3.40;;;2.23;;
32292;SDS011;43233;48.608;8.838;2023-07-13T05:00:26;1.53;;;1.43;;
32292;SDS011;43233;48.608;8.838;2023-07-13T05:02:51;4.73;;;1.80;;
32292;SDS011;43233;48.608;8.838;2023-07-13T05:05:18;3.53;;;2.00;;
32292;SDS011;43233;48.608;8.838;2023-07-13T05:07:44;4.00;;;1.73;;
32292;SDS011;43233;48.608;8.838;2023-07-13T05:10:10;1.80;;;1.70;;
32292;SDS011;43233;48.608;8.838;2023-07-13T05:12:35;2.33;;;2.00;;
32292;SDS011;43233;48.608;8.838;2023-07-13T05:15:01;2.67;;;2.17;;
32292;SDS011;43233;48.608;8.838;2023-07-13T05:17:28;3.00;;;2.50;;
32292;SDS011;43233;48.608;8.838;2023-07-13T05:19:53;4.50;;;2.07;;
32292;SDS011;43233;48.608;8.838;2023-07-13T05:22:19;2.10;;;1.90;;
32292;SDS011;43233;48.608;8.838;2023-07-13T05:24:45;3.23;;;1.60;;
32292;SDS011;43233;48.608;8.838;2023-07-13T05:27:10;2.80;;;2.10;;
32292;SDS011;43233;48.608;8.838;2023-07-13T05:29:36;2.17;;;1.90;;
32292;SDS011;43233;48.608;8.838;2023-07-13T05:32:02;1.77;;;1.67;;
32292;SDS011;43233;48.608;8.838;2023-07-13T05:34:28;6.07;;;2.07;;
32292;SDS011;43233;48.608;8.838;2023-07-13T05:36:54;5.00;;;2.00;;
32292;SDS011;43233;48.608;8.838;2023-07-13T05:39:20;1.80;;;1.70;;
32292;SDS011;43233;48.608;8.838;2023-07-13T05:41:45;10.60;;;1.97;;
32292;SDS011;43233;48.608;8.838;2023-07-13T05:44:11;3.40;;;2.50;;
32292;SDS011;43233;48.608;8.838;2023-07-13T05:46:36;6.60;;;2.20;;
32292;SDS011;43233;48.608;8.838;2023-07-13T05:49:02;4.93;;;2.07;;
32292;SDS011;43233;48.608;8.838;2023-07-13T05:51:28;1.60;;;1.50;;
32292;SDS011;43233;48.608;8.838;2023-07-13T05:53:54;1.70;;;1.60;;
32292;SDS011;43233;48.608;8.838;2023-07-13T05:56:19;4.50;;;2.27;;
32292;SDS011;43233;48.608;8.838;2023-07-13T05:58:45;6.27;;;1.80;;
32292;SDS011;43233;48.608;8.838;2023-07-13T06:01:13;3.07;;;1.90;;
32292;SDS011;43233;48.608;8.838;2023-07-13T06:03:40;1.60;;;1.50;;
32292;SDS011;43233;48.608;8.838;2023-07-13T06:06:06;9.33;;;2.13;;
32292;SDS011;43233;48.608;8.838;2023-07-13T06:08:33;2.07;;;1.40;;
32292;SDS011;43233;48.608;8.838;2023-07-13T06:11:33;6.57;;;1.70;;
32292;SDS011;43233;48.608;8.838;2023-07-13T06:13:52;5.20;;;2.30;;
32292;SDS011;43233;48.608;8.838;2023-07-13T06:16:19;4.30;;;2.43;;
32292;SDS011;43233;48.608;8.838;2023-07-13T06:18:44;4.70;;;2.50;;
32292;SDS011;43233;48.608;8.838;2023-07-13T06:21:11;5.90;;;2.20;;
32292;SDS011;43233;48.608;8.838;2023-07-13T06:23:39;7.63;;;2.30;;
32292;SDS011;43233;48.608;8.838;2023-07-13T06:26:06;4.27;;;2.07;;
32292;SDS011;43233;48.608;8.838;2023-07-13T06:28:32;3.20;;;2.20;;
32292;SDS011;43233;48.608;8.838;2023-07-13T06:30:59;12.03;;;2.50;;
32292;SDS011;43233;48.608;8.838;2023-07-13T06:33:25;4.93;;;2.10;;
32292;SDS011;43233;48.608;8.838;2023-07-13T06:35:51;2.27;;;1.90;;
32292;SDS011;43233;48.608;8.838;2023-07-13T06:38:18;5.20;;;1.83;;
32292;SDS011;43233;48.608;8.838;2023-07-13T06:40:43;6.20;;;2.10;;
32292;SDS011;43233;48.608;8.838;2023-07-13T06:43:09;2.43;;;1.90;;
32292;SDS011;43233;48.608;8.838;2023-07-13T06:45:39;5.23;;;2.00;;
32292;SDS011;43233;48.608;8.838;2023-07-13T06:48:06;4.40;;;1.67;;
32292;SDS011;43233;48.608;8.838;2023-07-13T06:50:33;3.40;;;1.77;;
32292;SDS011;43233;48.608;8.838;2023-07-13T06:52:59;6.30;;;1.77;;
32292;SDS011;43233;48.608;8.838;2023-07-13T06:55:24;6.00;;;1.83;;
32292;SDS011;43233;48.608;8.838;2023-07-13T06:57:50;4.57;;;1.90;;
32292;SDS011;43233;48.608;8.838;2023-07-13T07:00:16;2.00;;;1.60;;
32292;SDS011;43233;48.608;8.838;2023-07-13T07:02:42;5.10;;;1.93;;
32292;SDS011;43233;48.608;8.838;2023-07-13T07:05:08;1.70;;;1.57;;
32292;SDS011;43233;48.608;8.838;2023-07-13T07:07:33;1.77;;;1.50;;
32292;SDS011;43233;48.608;8.838;2023-07-13T07:09:59;3.33;;;2.20;;
32292;SDS011;43233;48.608;8.838;2023-07-13T07:12:25;1.33;;;1.33;;
32292;SDS011;43233;48.608;8.838;2023-07-13T07:14:50;5.47;;;2.00;;
32292;SDS011;43233;48.608;8.838;2023-07-13T07:17:16;3.73;;;1.53;;
32292;SDS011;43233;48.608;8.838;2023-07-13T07:19:41;2.73;;;1.83;;
32292;SDS011;43233;48.608;8.838;2023-07-13T07:22:07;5.33;;;1.73;;
32292;SDS011;43233;48.608;8.838;2023-07-13T07:24:34;7.47;;;1.77;;
32292;SDS011;43233;48.608;8.838;2023-07-13T07:26:59;1.40;;;1.30;;
32292;SDS011;43233;48.608;8.838;2023-07-13T07:29:25;2.70;;;1.53;;
32292;SDS011;43233;48.608;8.838;2023-07-13T07:34:27;2.30;;;1.60;;
32292;SDS011;43233;48.608;8.838;2023-07-13T07:36:53;7.07;;;1.47;;
32292;SDS011;43233;48.608;8.838;2023-07-13T07:39:19;2.90;;;1.40;;
32292;SDS011;43233;48.608;8.838;2023-07-13T07:41:45;3.67;;;1.67;;
32292;SDS011;43233;48.608;8.838;2023-07-13T07:44:11;2.17;;;1.30;;
32292;SDS011;43233;48.608;8.838;2023-07-13T07:46:36;4.33;;;1.10;;
32292;SDS011;43233;48.608;8.838;2023-07-13T07:49:02;2.83;;;1.17;;
32292;SDS011;43233;48.608;8.838;2023-07-13T07:51:28;4.70;;;1.60;;
32292;SDS011;43233;48.608;8.838;2023-07-13T07:53:53;1.73;;;1.53;;
32292;SDS011;43233;48.608;8.838;2023-07-13T07:56:19;6.23;;;1.43;;
32292;SDS011;43233;48.608;8.838;2023-07-13T07:58:45;3.50;;;1.53;;
32292;SDS011;43233;48.608;8.838;2023-07-13T08:01:10;3.87;;;1.47;;
32292;SDS011;43233;48.608;8.838;2023-07-13T08:03:36;2.23;;;1.40;;
32292;SDS011;43233;48.608;8.838;2023-07-13T08:06:05;2.90;;;1.20;;
32292;SDS011;43233;48.608;8.838;2023-07-13T08:08:31;1.33;;;1.20;;
32292;SDS011;43233;48.608;8.838;2023-07-13T08:10:56;1.30;;;1.20;;
32292;SDS011;43233;48.608;8.838;2023-07-13T08:13:22;2.10;;;1.23;;
32292;SDS011;43233;48.608;8.838;2023-07-13T08:15:48;3.10;;;1.50;;
32292;SDS011;43233;48.608;8.838;2023-07-13T08:18:14;5.03;;;1.77;;
32292;SDS011;43233;48.608;8.838;2023-07-13T08:20:40;4.00;;;1.13;;
32292;SDS011;43233;48.608;8.838;2023-07-13T08:23:06;6.67;;;1.33;;
32292;SDS011;43233;48.608;8.838;2023-07-13T08:25:34;4.00;;;1.50;;
32292;SDS011;43233;48.608;8.838;2023-07-13T08:28:00;4.30;;;1.40;;
32292;SDS011;43233;48.608;8.838;2023-07-13T08:30:27;2.80;;;1.40;;
32292;SDS011;43233;48.608;8.838;2023-07-13T08:32:53;4.33;;;1.50;;
32292;SDS011;43233;48.608;8.838;2023-07-13T08:35:19;2.50;;;1.40;;
32292;SDS011;43233;48.608;8.838;2023-07-13T08:37:45;9.67;;;1.80;;
32292;SDS011;43233;48.608;8.838;2023-07-13T08:40:11;2.30;;;1.40;;
32292;SDS011;43233;48.608;8.838;2023-07-13T08:42:48;4.10;;;1.50;;
32292;SDS011;43233;48.608;8.838;2023-07-13T08:45:24;2.00;;;1.63;;
32292;SDS011;43233;48.608;8.838;2023-07-13T08:53:26;1.57;;;1.30;;
32292;SDS011;43233;48.608;8.838;2023-07-13T08:56:00;3.63;;;1.30;;
32292;SDS011;43233;48.608;8.838;2023-07-13T08:58:26;2.03;;;1.50;;
32292;SDS011;43233;48.608;8.838;2023-07-13T09:03:27;2.37;;;1.27;;
32292;SDS011;43233;48.608;8.838;2023-07-13T09:05:59;1.87;;;1.37;;
32292;SDS011;43233;48.608;8.838;2023-07-13T09:17:17;3.17;;;1.40;;
32292;SDS011;43233;48.608;8.838;2023-07-13T09:20:35;1.70;;;1.43;;
32292;SDS011;43233;48.608;8.838;2023-07-13T09:22:52;6.33;;;1.27;;
32292;SDS011;43233;48.608;8.838;2023-07-13T09:28:18;1.77;;;1.37;;
32292;SDS011;43233;48.608;8.838;2023-07-13T09:30:51;1.97;;;1.57;;
32292;SDS011;43233;48.608;8.838;2023-07-13T09:33:39;3.07;;;1.67;;
32292;SDS011;43233;48.608;8.838;2023-07-13T09:36:18;1.40;;;1.30;;
32292;SDS011;43233;48.608;8.838;2023-07-13T09:38:51;2.87;;;1.60;;
32292;SDS011;43233;48.608;8.838;2023-07-13T09:41:57;1.53;;;1.13;;
32292;SDS011;43233;48.608;8.838;2023-07-13T09:46:55;2.00;;;1.37;;
32292;SDS011;43233;48.608;8.838;2023-07-13T09:49:35;2.00;;;1.30;;
32292;SDS011;43233;48.608;8.838;2023-07-13T09:52:03;1.87;;;1.27;;
32292;SDS011;43233;48.608;8.838;2023-07-13T09:54:35;1.30;;;1.20;;
32292;SDS011;43233;48.608;8.838;2023-07-13T09:57:02;3.00;;;1.40;;
32292;SDS011;43233;48.608;8.838;2023-07-13T09:59:40;3.03;;;0.90;;
32292;SDS011;43233;48.608;8.838;2023-07-13T10:02:24;2.60;;;1.40;;
32292;SDS011;43233;48.608;8.838;2023-07-13T10:07:32;1.80;;;1.37;;
32292;SDS011;43233;48.608;8.838;2023-07-13T10:10:02;1.20;;;1.10;;
32292;SDS011;43233;48.608;8.838;2023-07-13T10:12:29;2.23;;;1.13;;
32292;SDS011;43233;48.608;8.838;2023-07-13T10:15:00;2.10;;;1.53;;
32292;SDS011;43233;48.608;8.838;2023-07-13T10:17:29;3.23;;;1.30;;
32292;SDS011;43233;48.608;8.838;2023-07-13T10:20:01;3.83;;;1.30;;
32292;SDS011;43233;48.608;8.838;2023-07-13T10:25:24;2.33;;;1.30;;
32292;SDS011;43233;48.608;8.838;2023-07-13T10:27:52;2.97;;;1.37;;
32292;SDS011;43233;48.608;8.838;2023-07-13T10:30:23;4.50;;;1.20;;
32292;SDS011;43233;48.608;8.838;2023-07-13T10:32:58;3.57;;;1.30;;
32292;SDS011;43233;48.608;8.838;2023-07-13T10:35:25;2.63;;;1.20;;
32292;SDS011;43233;48.608;8.838;2023-07-13T10:37:55;2.50;;;1.80;;
32292;SDS011;43233;48.608;8.838;2023-07-13T10:40:29;3.50;;;1.87;;
32292;SDS011;43233;48.608;8.838;2023-07-13T10:42:59;4.30;;;1.43;;
32292;SDS011;43233;48.608;8.838;2023-07-13T10:45:30;2.30;;;1.20;;
32292;SDS011;43233;48.608;8.838;2023-07-13T10:47:59;3.03;;;1.53;;
32292;SDS011;43233;48.608;8.838;2023-07-13T10:50:26;3.20;;;1.30;;
32292;SDS011;43233;48.608;8.838;2023-07-13T10:52:55;1.43;;;1.10;;
32292;SDS011;43233;48.608;8.838;2023-07-13T10:58:02;3.20;;;1.27;;
32292;SDS011;43233;48.608;8.838;2023-07-13T11:00:42;3.37;;;1.30;;
32292;SDS011;43233;48.608;8.838;2023-07-13T11:03:12;2.87;;;1.80;;
32292;SDS011;43233;48.608;8.838;2023-07-13T11:05:42;2.37;;;1.20;;
32292;SDS011;43233;48.608;8.838;2023-07-13T11:10:57;2.03;;;1.20;;
32292;SDS011;43233;48.608;8.838;2023-07-13T11:13:36;2.13;;;1.10;;
32292;SDS011;43233;48.608;8.838;2023-07-13T11:19:37;2.20;;;1.30;;
32292;SDS011;43233;48.608;8.838;2023-07-13T11:21:31;6.90;;;1.43;;
32292;SDS011;43233;48.608;8.838;2023-07-13T11:24:04;1.87;;;1.40;;
32292;SDS011;43233;48.608;8.838;2023-07-13T11:26:52;5.10;;;1.43;;
32292;SDS011;43233;48.608;8.838;2023-07-13T11:31:56;3.73;;;1.20;;
32292;SDS011;43233;48.608;8.838;2023-07-13T11:34:28;2.30;;;1.47;;
32292;SDS011;43233;48.608;8.838;2023-07-13T11:36:59;1.37;;;1.07;;
32292;SDS011;43233;48.608;8.838;2023-07-13T11:39:30;1.23;;;1.10;;
32292;SDS011;43233;48.608;8.838;2023-07-13T11:41:58;1.53;;;1.20;;
32292;SDS011;43233;48.608;8.838;2023-07-13T11:44:27;1.43;;;1.33;;
32292;SDS011;43233;48.608;8.838;2023-07-13T11:46:58;1.77;;;1.20;;
32292;SDS011;43233;48.608;8.838;2023-07-13T11:49:26;2.00;;;1.37;;
32292;SDS011;43233;48.608;8.838;2023-07-13T11:51:54;1.20;;;1.10;;
32292;SDS011;43233;48.608;8.838;2023-07-13T11:54:26;1.80;;;1.17;;
32292;SDS011;43233;48.608;8.838;2023-07-13T11:56:53;2.23;;;1.30;;
32292;SDS011;43233;48.608;8.838;2023-07-13T11:59:20;2.60;;;1.70;;
32292;SDS011;43233;48.608;8.838;2023-07-13T12:01:48;1.60;;;1.27;;
32292;SDS011;43233;48.608;8.838;2023-07-13T12:04:26;2.13;;;1.33;;
32292;SDS011;43233;48.608;8.838;2023-07-13T12:07:07;1.53;;;1.33;;
32292;SDS011;43233;48.608;8.838;2023-07-13T12:09:40;2.43;;;1.17;;
32292;SDS011;43233;48.608;8.838;2023-07-13T12:12:14;2.33;;;1.27;;
32292;SDS011;43233;48.608;8.838;2023-07-13T12:14:42;1.17;;;1.00;;
32292;SDS011;43233;48.608;8.838;2023-07-13T12:17:29;3.43;;;1.60;;
32292;SDS011;43233;48.608;8.838;2023-07-13T12:19:54;1.97;;;1.70;;
32292;SDS011;43233;48.608;8.838;2023-07-13T12:22:20;1.73;;;1.20;;
32292;SDS011;43233;48.608;8.838;2023-07-13T12:24:48;1.73;;;1.10;;
32292;SDS011;43233;48.608;8.838;2023-07-13T12:27:21;3.73;;;1.70;;
32292;SDS011;43233;48.608;8.838;2023-07-13T12:29:57;2.17;;;1.50;;
32292;SDS011;43233;48.608;8.838;2023-07-13T12:32:25;7.63;;;1.57;;
32292;SDS011;43233;48.608;8.838;2023-07-13T12:34:56;3.70;;;1.40;;
32292;SDS011;43233;48.608;8.838;2023-07-13T12:37:44;3.30;;;1.07;;
32292;SDS011;43233;48.608;8.838;2023-07-13T12:40:15;2.37;;;1.50;;
32292;SDS011;43233;48.608;8.838;2023-07-13T12:42:44;3.03;;;0.90;;
32292;SDS011;43233;48.608;8.838;2023-07-13T12:47:53;1.70;;;1.10;;
32292;SDS011;43233;48.608;8.838;2023-07-13T12:50:28;2.33;;;1.13;;
32292;SDS011;43233;48.608;8.838;2023-07-13T12:53:03;2.13;;;1.20;;
32292;SDS011;43233;48.608;8.838;2023-07-13T12:55:32;2.50;;;1.30;;
32292;SDS011;43233;48.608;8.838;2023-07-13T12:58:30;1.90;;;1.20;;
32292;SDS011;43233;48.608;8.838;2023-07-13T13:01:07;2.10;;;1.33;;
32292;SDS011;43233;48.608;8.838;2023-07-13T13:03:38;1.80;;;1.07;;
32292;SDS011;43233;48.608;8.838;2023-07-13T13:08:45;1.43;;;1.30;;
32292;SDS011;43233;48.608;8.838;2023-07-13T13:11:13;4.00;;;1.37;;
32292;SDS011;43233;48.608;8.838;2023-07-13T13:13:41;2.60;;;1.23;;
32292;SDS011;43233;48.608;8.838;2023-07-13T13:18:52;4.27;;;1.33;;
32292;SDS011;43233;48.608;8.838;2023-07-13T13:21:19;1.83;;;1.20;;
32292;SDS011;43233;48.608;8.838;2023-07-13T13:23:45;4.47;;;1.40;;
32292;SDS011;43233;48.608;8.838;2023-07-13T13:26:12;2.10;;;1.67;;
32292;SDS011;43233;48.608;8.838;2023-07-13T13:28:40;5.20;;;1.40;;
32292;SDS011;43233;48.608;8.838;2023-07-13T13:31:08;5.33;;;1.03;;
32292;SDS011;43233;48.608;8.838;2023-07-13T13:33:37;3.13;;;1.10;;
32292;SDS011;43233;48.608;8.838;2023-07-13T13:36:12;1.67;;;1.33;;
32292;SDS011;43233;48.608;8.838;2023-07-13T13:38:43;5.53;;;1.33;;
32292;SDS011;43233;48.608;8.838;2023-07-13T13:41:09;3.63;;;1.20;;
32292;SDS011;43233;48.608;8.838;2023-07-13T13:43:38;7.83;;;1.30;;
32292;SDS011;43233;48.608;8.838;2023-07-13T13:46:28;0.90;;;0.90;;
32292;SDS011;43233;48.608;8.838;2023-07-13T13:48:55;1.40;;;1.30;;
32292;SDS011;43233;48.608;8.838;2023-07-13T13:51:22;1.83;;;1.50;;
32292;SDS011;43233;48.608;8.838;2023-07-13T13:53:50;3.30;;;1.10;;
32292;SDS011;43233;48.608;8.838;2023-07-13T13:56:17;2.20;;;1.50;;
32292;SDS011;43233;48.608;8.838;2023-07-13T13:58:43;3.13;;;1.47;;
32292;SDS011;43233;48.608;8.838;2023-07-13T14:01:11;2.97;;;1.20;;
32292;SDS011;43233;48.608;8.838;2023-07-13T14:03:49;1.40;;;1.10;;
32292;SDS011;43233;48.608;8.838;2023-07-13T14:06:18;4.43;;;1.00;;
32292;SDS011;43233;48.608;8.838;2023-07-13T14:08:44;3.50;;;1.80;;
32292;SDS011;43233;48.608;8.838;2023-07-13T14:11:15;3.67;;;1.83;;
32292;SDS011;43233;48.608;8.838;2023-07-13T14:13:43;1.70;;;1.33;;
32292;SDS011;43233;48.608;8.838;2023-07-13T14:16:17;3.57;;;1.27;;
32292;SDS011;43233;48.608;8.838;2023-07-13T14:18:46;2.70;;;1.30;;
32292;SDS011;43233;48.608;8.838;2023-07-13T14:21:14;5.57;;;1.80;;
32292;SDS011;43233;48.608;8.838;2023-07-13T14:23:42;3.20;;;1.90;;
32292;SDS011;43233;48.608;8.838;2023-07-13T14:26:19;2.60;;;1.40;;
32292;SDS011;43233;48.608;8.838;2023-07-13T14:28:48;2.07;;;1.30;;
32292;SDS011;43233;48.608;8.838;2023-07-13T14:31:16;5.67;;;1.53;;
32292;SDS011;43233;48.608;8.838;2023-07-13T14:33:43;3.90;;;1.73;;
32292;SDS011;43233;48.608;8.838;2023-07-13T14:36:24;2.23;;;1.40;;
32292;SDS011;43233;48.608;8.838;2023-07-13T14:38:50;3.63;;;1.70;;
32292;SDS011;43233;48.608;8.838;2023-07-13T14:41:16;2.10;;;1.40;;
32292;SDS011;43233;48.608;8.838;2023-07-13T14:43:41;10.67;;;1.53;;
32292;SDS011;43233;48.608;8.838;2023-07-13T14:46:08;3.37;;;1.50;;
32292;SDS011;43233;48.608;8.838;2023-07-13T14:49:23;1.87;;;1.40;;
32292;SDS011;43233;48.608;8.838;2023-07-13T14:51:54;3.70;;;1.50;;
32292;SDS011;43233;48.608;8.838;2023-07-13T14:54:22;2.17;;;1.13;;
32292;SDS011;43233;48.608;8.838;2023-07-13T14:56:48;13.33;;;1.50;;
32292;SDS011;43233;48.608;8.838;2023-07-13T14:59:14;3.37;;;1.70;;
32292;SDS011;43233;48.608;8.838;2023-07-13T15:01:39;3.80;;;1.57;;
32292;SDS011;43233;48.608;8.838;2023-07-13T15:04:06;5.10;;;2.57;;
32292;SDS011;43233;48.608;8.838;2023-07-13T15:06:35;2.13;;;1.47;;
32292;SDS011;43233;48.608;8.838;2023-07-13T15:09:25;2.40;;;1.40;;
32292;SDS011;43233;48.608;8.838;2023-07-13T15:11:54;5.60;;;1.63;;
32292;SDS011;43233;48.608;8.838;2023-07-13T15:14:20;1.70;;;1.60;;
32292;SDS011;43233;48.608;8.838;2023-07-13T15:16:47;4.83;;;1.73;;
32292;SDS011;43233;48.608;8.838;2023-07-13T15:19:16;4.70;;;1.60;;
32292;SDS011;43233;48.608;8.838;2023-07-13T15:21:43;2.47;;;1.60;;
32292;SDS011;43233;48.608;8.838;2023-07-13T15:24:09;5.60;;;2.17;;
32292;SDS011;43233;48.608;8.838;2023-07-13T15:26:36;4.43;;;1.47;;
32292;SDS011;43233;48.608;8.838;2023-07-13T15:29:02;3.20;;;1.60;;
32292;SDS011;43233;48.608;8.838;2023-07-13T15:31:28;9.80;;;1.57;;
32292;SDS011;43233;48.608;8.838;2023-07-13T15:33:55;1.67;;;1.27;;
32292;SDS011;43233;48.608;8.838;2023-07-13T15:36:22;2.43;;;1.50;;
32292;SDS011;43233;48.608;8.838;2023-07-13T15:38:51;2.17;;;1.50;;
32292;SDS011;43233;48.608;8.838;2023-07-13T15:43:48;3.47;;;1.40;;
32292;SDS011;43233;48.608;8.838;2023-07-13T15:46:20;3.10;;;1.57;;
32292;SDS011;43233;48.608;8.838;2023-07-13T15:48:48;3.80;;;1.27;;
32292;SDS011;43233;48.608;8.838;2023-07-13T15:51:18;2.67;;;1.33;;
32292;SDS011;43233;48.608;8.838;2023-07-13T15:53:52;6.07;;;1.47;;